Ekwok, AK

3:07 PM AKDT on March 28, 2015 (GMT -0800)
King Salmon | | Change Station
CLOSE
Current Station
Airport
Location: King Salmon,
Elevation: 46 ft
Nearby Weather Stations

Elev 46 ft 58.68 °N, 156.66 °W | Updated 13 minutes ago

Mostly Cloudy
Mostly Cloudy
48 °F
Feels Like 48 °F
N
14
Wind Variable Wind from ENE

Today
High -- | Low -- °F
--% Chance of Precip.
Yesterday
High -- | Low -- °F
Precip. -- in
8:08 AM 9:03 PM
Waxing Gibbous, 66% visible
Pressure 29.22 in
Visibility 10.0 miles
Clouds Few 5500 ft
Mostly Cloudy 9000 ft
Mostly Cloudy 20000 ft
Dew Point 32 °F
Humidity 54%
Rainfall 0.00 in
Snow Depth Not available.
UV 2 out of 12
Pollen Not available.
Air Quality Not available.
Flu Activity Not available.
METAR PAKN 282254Z 07012KT 10SM FEW055 BKN090 BKN200 09/00 A2922 RMK AO2 SLP894 T00890000

More Conditions Fewer Conditions

Pressure 29.22 in
Visibility 10.0 miles
Clouds Few 5500 ft
Mostly Cloudy 9000 ft
Mostly Cloudy 20000 ft
Dew Point 32 °F
Humidity 54%
Rainfall 0.00 in
Snow Depth Not available.
UV 2 out of 12
Pollen Not available.
Air Quality Not available.
Flu Activity Not available.
METAR PAKN 282254Z 07012KT 10SM FEW055 BKN090 BKN200 09/00 A2922 RMK AO2 SLP894 T00890000

More Conditions Fewer Conditions

10-Day Weather Forecast

Almanac

Astronomy

Mar. 28, 2015 Rise Set
Actual Time
Civil Twilight
Nautical Twilight
Astronomical Twilight
Moon
Length of Visible Light
Length of Day
Tomorrow will be .
, % of the Moon is Illuminated

Today's Extremes

State Highs State Lows

Community

WunderPhotos

Upload Photos

1,809,121 photos uploaded!

WunderBlogs® & News

Nearby

Air Quality

  Air Quality AQ Index Pollutant
Not available.

Snow Depth

Station Depth Elevation

Earthquake Activity

City Distance Mag. Time & Date
Minimum magnitude displayed is 2.5.

Coastal Water Temperatures

Place Temperature

Stations

Nearby Weather Stations

Station Location Temp. Windchill Dew Point Humidity Wind Precip. Elev Updated Type